sensor_id;sensor_type;location;lat;lon;timestamp;temperature;humidity
38910;DHT22;24676;51.360;12.354;2022-09-02T04:01:49;11.80;99.90
38910;DHT22;24676;51.360;12.354;2022-09-02T04:04:34;11.80;99.90
38910;DHT22;24676;51.360;12.354;2022-09-02T04:07:18;11.80;99.90
38910;DHT22;24676;51.360;12.354;2022-09-02T04:10:04;11.80;99.90
38910;DHT22;24676;51.360;12.354;2022-09-02T04:12:50;11.80;99.90
38910;DHT22;24676;51.360;12.354;2022-09-02T04:15:38;11.70;99.90
38910;DHT22;24676;51.360;12.354;2022-09-02T04:18:22;11.70;99.90
38910;DHT22;24676;51.360;12.354;2022-09-02T04:21:07;11.70;99.90
38910;DHT22;24676;51.360;12.354;2022-09-02T04:23:51;11.80;99.90
38910;DHT22;24676;51.360;12.354;2022-09-02T04:26:36;11.70;99.90
38910;DHT22;24676;51.360;12.354;2022-09-02T04:29:20;11.70;99.90
38910;DHT22;24676;51.360;12.354;2022-09-02T04:32:06;11.70;99.90
38910;DHT22;24676;51.360;12.354;2022-09-02T04:34:51;11.70;99.90
38910;DHT22;24676;51.360;12.354;2022-09-02T04:37:36;11.70;99.90
38910;DHT22;24676;51.360;12.354;2022-09-02T04:40:20;11.70;99.90
38910;DHT22;24676;51.360;12.354;2022-09-02T04:43:04;11.70;99.90
38910;DHT22;24676;51.360;12.354;2022-09-02T04:45:49;11.70;99.90
38910;DHT22;24676;51.360;12.354;2022-09-02T04:48:35;11.70;99.90
38910;DHT22;24676;51.360;12.354;2022-09-02T04:51:22;11.70;99.90
38910;DHT22;24676;51.360;12.354;2022-09-02T04:54:06;11.80;99.90
38910;DHT22;24676;51.360;12.354;2022-09-02T04:56:51;11.80;99.90
38910;DHT22;24676;51.360;12.354;2022-09-02T04:59:35;11.80;99.90
38910;DHT22;24676;51.360;12.354;2022-09-02T05:02:19;11.90;99.90
38910;DHT22;24676;51.360;12.354;2022-09-02T05:05:04;12.00;99.90
38910;DHT22;24676;51.360;12.354;2022-09-02T05:07:50;12.10;99.90
38910;DHT22;24676;51.360;12.354;2022-09-02T05:10:34;12.20;99.90
38910;DHT22;24676;51.360;12.354;2022-09-02T05:13:18;12.20;99.90
38910;DHT22;24676;51.360;12.354;2022-09-02T05:16:02;12.30;99.90
38910;DHT22;24676;51.360;12.354;2022-09-02T05:18:48;12.30;99.90
38910;DHT22;24676;51.360;12.354;2022-09-02T05:21:33;12.40;99.90
38910;DHT22;24676;51.360;12.354;2022-09-02T05:24:17;12.50;99.90
38910;DHT22;24676;51.360;12.354;2022-09-02T05:27:01;12.60;99.90
38910;DHT22;24676;51.360;12.354;2022-09-02T05:29:46;12.80;99.90
38910;DHT22;24676;51.360;12.354;2022-09-02T05:32:30;12.90;99.90
38910;DHT22;24676;51.360;12.354;2022-09-02T05:35:15;13.00;99.90
38910;DHT22;24676;51.360;12.354;2022-09-02T05:38:00;13.20;99.90
38910;DHT22;24676;51.360;12.354;2022-09-02T05:40:44;14.90;99.90
38910;DHT22;24676;51.360;12.354;2022-09-02T05:43:28;17.50;99.90
38910;DHT22;24676;51.360;12.354;2022-09-02T05:46:15;20.20;97.40
38910;DHT22;24676;51.360;12.354;2022-09-02T05:49:01;22.90;72.30
38910;DHT22;24676;51.360;12.354;2022-09-02T05:52:01;24.90;56.90
38910;DHT22;24676;51.360;12.354;2022-09-02T05:54:46;26.90;49.50
38910;DHT22;24676;51.360;12.354;2022-09-02T05:57:32;28.50;43.70
38910;DHT22;24676;51.360;12.354;2022-09-02T06:00:16;29.60;41.60
38910;DHT22;24676;51.360;12.354;2022-09-02T06:03:00;30.50;38.80
38910;DHT22;24676;51.360;12.354;2022-09-02T06:05:57;31.20;37.00
38910;DHT22;24676;51.360;12.354;2022-09-02T06:08:41;32.30;34.80
38910;DHT22;24676;51.360;12.354;2022-09-02T06:11:26;33.50;32.80
38910;DHT22;24676;51.360;12.354;2022-09-02T06:14:12;34.60;31.10
38910;DHT22;24676;51.360;12.354;2022-09-02T06:16:57;35.20;29.20
38910;DHT22;24676;51.360;12.354;2022-09-02T06:19:42;35.10;29.30
38910;DHT22;24676;51.360;12.354;2022-09-02T06:22:26;35.70;28.70
38910;DHT22;24676;51.360;12.354;2022-09-02T06:25:10;34.90;28.80
38910;DHT22;24676;51.360;12.354;2022-09-02T06:27:54;35.20;29.10
38910;DHT22;24676;51.360;12.354;2022-09-02T06:30:40;36.00;28.00
38910;DHT22;24676;51.360;12.354;2022-09-02T06:33:25;37.00;26.80
38910;DHT22;24676;51.360;12.354;2022-09-02T06:36:11;37.00;26.70
38910;DHT22;24676;51.360;12.354;2022-09-02T06:38:56;37.30;26.70
38910;DHT22;24676;51.360;12.354;2022-09-02T06:41:41;38.10;25.70
38910;DHT22;24676;51.360;12.354;2022-09-02T06:44:25;39.10;25.20
38910;DHT22;24676;51.360;12.354;2022-09-02T06:47:09;39.90;24.60
38910;DHT22;24676;51.360;12.354;2022-09-02T06:49:53;40.40;24.00
38910;DHT22;24676;51.360;12.354;2022-09-02T06:52:37;40.00;23.70
38910;DHT22;24676;51.360;12.354;2022-09-02T06:55:22;39.60;23.50
38910;DHT22;24676;51.360;12.354;2022-09-02T06:58:06;37.50;25.30
38910;DHT22;24676;51.360;12.354;2022-09-02T07:00:50;37.20;25.70
38910;DHT22;24676;51.360;12.354;2022-09-02T07:03:34;36.50;26.00
38910;DHT22;24676;51.360;12.354;2022-09-02T07:06:39;36.80;26.00
38910;DHT22;24676;51.360;12.354;2022-09-02T07:09:25;36.70;25.30
38910;DHT22;24676;51.360;12.354;2022-09-02T07:12:14;36.80;25.90
38910;DHT22;24676;51.360;12.354;2022-09-02T07:14:59;37.00;25.30
38910;DHT22;24676;51.360;12.354;2022-09-02T07:17:44;37.40;25.40
38910;DHT22;24676;51.360;12.354;2022-09-02T07:20:28;38.30;24.40
38910;DHT22;24676;51.360;12.354;2022-09-02T07:23:13;37.60;25.00
38910;DHT22;24676;51.360;12.354;2022-09-02T07:25:57;37.40;25.60
38910;DHT22;24676;51.360;12.354;2022-09-02T07:28:41;37.80;24.90
38910;DHT22;24676;51.360;12.354;2022-09-02T07:31:26;37.40;25.50
38910;DHT22;24676;51.360;12.354;2022-09-02T07:34:11;37.90;24.70
38910;DHT22;24676;51.360;12.354;2022-09-02T07:36:57;38.30;24.30
38910;DHT22;24676;51.360;12.354;2022-09-02T07:39:41;37.10;24.90
38910;DHT22;24676;51.360;12.354;2022-09-02T07:42:26;37.10;24.60
38910;DHT22;24676;51.360;12.354;2022-09-02T07:45:12;36.80;24.20
38910;DHT22;24676;51.360;12.354;2022-09-02T07:47:56;35.80;24.80
38910;DHT22;24676;51.360;12.354;2022-09-02T07:50:41;34.80;25.30
38910;DHT22;24676;51.360;12.354;2022-09-02T07:53:25;33.70;26.50
38910;DHT22;24676;51.360;12.354;2022-09-02T07:56:11;33.50;27.10
38910;DHT22;24676;51.360;12.354;2022-09-02T07:58:56;34.00;27.20
38910;DHT22;24676;51.360;12.354;2022-09-02T08:01:40;35.20;26.40
38910;DHT22;24676;51.360;12.354;2022-09-02T08:04:26;35.60;25.90
38910;DHT22;24676;51.360;12.354;2022-09-02T08:07:10;34.90;25.60
38910;DHT22;24676;51.360;12.354;2022-09-02T08:09:55;33.10;27.10
38910;DHT22;24676;51.360;12.354;2022-09-02T08:12:39;31.70;28.60
38910;DHT22;24676;51.360;12.354;2022-09-02T08:15:24;30.70;30.00
38910;DHT22;24676;51.360;12.354;2022-09-02T08:18:11;29.60;30.30
38910;DHT22;24676;51.360;12.354;2022-09-02T08:20:56;28.50;32.30
38910;DHT22;24676;51.360;12.354;2022-09-02T08:23:40;27.90;33.60
38910;DHT22;24676;51.360;12.354;2022-09-02T08:26:24;27.40;34.50
38910;DHT22;24676;51.360;12.354;2022-09-02T08:29:11;27.20;34.50
38910;DHT22;24676;51.360;12.354;2022-09-02T08:31:55;26.90;35.30
38910;DHT22;24676;51.360;12.354;2022-09-02T08:34:39;26.90;34.80
38910;DHT22;24676;51.360;12.354;2022-09-02T08:37:23;26.70;35.30
38910;DHT22;24676;51.360;12.354;2022-09-02T08:40:12;26.50;36.20
38910;DHT22;24676;51.360;12.354;2022-09-02T08:42:57;26.80;35.10
38910;DHT22;24676;51.360;12.354;2022-09-02T08:45:41;26.70;35.10
38910;DHT22;24676;51.360;12.354;2022-09-02T08:51:30;26.90;35.40
38910;DHT22;24676;51.360;12.354;2022-09-02T08:54:49;27.20;35.00
38910;DHT22;24676;51.360;12.354;2022-09-02T08:57:26;27.40;34.50
38910;DHT22;24676;51.360;12.354;2022-09-02T09:00:11;27.00;34.50
38910;DHT22;24676;51.360;12.354;2022-09-02T09:03:00;26.60;35.20
38910;DHT22;24676;51.360;12.354;2022-09-02T09:06:06;26.10;35.50
38910;DHT22;24676;51.360;12.354;2022-09-02T09:09:02;26.00;36.10
38910;DHT22;24676;51.360;12.354;2022-09-02T09:15:45;26.40;36.10
38910;DHT22;24676;51.360;12.354;2022-09-02T09:18:38;26.40;36.70
38910;DHT22;24676;51.360;12.354;2022-09-02T09:21:22;26.30;34.50
38910;DHT22;24676;51.360;12.354;2022-09-02T09:24:20;26.10;35.00
38910;DHT22;24676;51.360;12.354;2022-09-02T09:27:08;25.70;36.20
38910;DHT22;24676;51.360;12.354;2022-09-02T09:29:52;25.90;35.20
38910;DHT22;24676;51.360;12.354;2022-09-02T09:32:40;26.10;35.20
38910;DHT22;24676;51.360;12.354;2022-09-02T09:35:27;26.30;35.00
38910;DHT22;24676;51.360;12.354;2022-09-02T09:38:11;26.30;35.40
38910;DHT22;24676;51.360;12.354;2022-09-02T09:41:08;25.90;35.30
38910;DHT22;24676;51.360;12.354;2022-09-02T09:43:53;25.70;36.40
38910;DHT22;24676;51.360;12.354;2022-09-02T09:46:37;25.70;36.10
38910;DHT22;24676;51.360;12.354;2022-09-02T09:49:30;25.70;35.40
38910;DHT22;24676;51.360;12.354;2022-09-02T09:52:25;25.20;35.80
38910;DHT22;24676;51.360;12.354;2022-09-02T09:55:14;25.30;36.30
38910;DHT22;24676;51.360;12.354;2022-09-02T09:58:06;25.80;35.30
38910;DHT22;24676;51.360;12.354;2022-09-02T10:00:50;26.50;34.20
38910;DHT22;24676;51.360;12.354;2022-09-02T10:04:23;27.40;33.40
38910;DHT22;24676;51.360;12.354;2022-09-02T10:06:46;28.60;32.40
38910;DHT22;24676;51.360;12.354;2022-09-02T10:09:35;29.50;30.30
38910;DHT22;24676;51.360;12.354;2022-09-02T10:12:31;30.40;29.20
38910;DHT22;24676;51.360;12.354;2022-09-02T10:15:23;31.10;28.80
38910;DHT22;24676;51.360;12.354;2022-09-02T10:27:33;30.40;28.00
38910;DHT22;24676;51.360;12.354;2022-09-02T10:30:21;30.30;28.00
38910;DHT22;24676;51.360;12.354;2022-09-02T10:42:14;31.20;26.80
38910;DHT22;24676;51.360;12.354;2022-09-02T11:02:35;30.60;27.40
38910;DHT22;24676;51.360;12.354;2022-09-02T11:05:24;30.60;27.10
38910;DHT22;24676;51.360;12.354;2022-09-02T11:08:17;30.70;27.20
38910;DHT22;24676;51.360;12.354;2022-09-02T11:14:23;29.70;27.60
38910;DHT22;24676;51.360;12.354;2022-09-02T11:26:27;26.40;31.70
38910;DHT22;24676;51.360;12.354;2022-09-02T11:35:17;26.10;32.90
38910;DHT22;24676;51.360;12.354;2022-09-02T11:44:43;27.90;29.00
38910;DHT22;24676;51.360;12.354;2022-09-02T11:53:41;25.40;31.70
38910;DHT22;24676;51.360;12.354;2022-09-02T11:56:30;24.90;33.00
38910;DHT22;24676;51.360;12.354;2022-09-02T12:17:08;25.50;32.00
38910;DHT22;24676;51.360;12.354;2022-09-02T12:19:54;25.70;30.90
38910;DHT22;24676;51.360;12.354;2022-09-02T12:22:39;25.70;30.40
38910;DHT22;24676;51.360;12.354;2022-09-02T12:28:26;25.50;30.60
38910;DHT22;24676;51.360;12.354;2022-09-02T12:31:15;25.30;31.00
38910;DHT22;24676;51.360;12.354;2022-09-02T12:37:06;25.20;31.10
38910;DHT22;24676;51.360;12.354;2022-09-02T12:39:52;25.40;30.80
38910;DHT22;24676;51.360;12.354;2022-09-02T12:42:39;25.40;31.20
38910;DHT22;24676;51.360;12.354;2022-09-02T12:45:26;25.30;30.70
38910;DHT22;24676;51.360;12.354;2022-09-02T12:48:18;24.90;31.90
38910;DHT22;24676;51.360;12.354;2022-09-02T12:51:05;25.10;32.50
38910;DHT22;24676;51.360;12.354;2022-09-02T12:53:51;25.30;31.90
38910;DHT22;24676;51.360;12.354;2022-09-02T12:56:35;25.50;32.20
38910;DHT22;24676;51.360;12.354;2022-09-02T13:02:16;25.30;31.90
38910;DHT22;24676;51.360;12.354;2022-09-02T13:17:46;23.60;35.90
38910;DHT22;24676;51.360;12.354;2022-09-02T13:26:52;23.40;36.80
38910;DHT22;24676;51.360;12.354;2022-09-02T13:33:05;23.30;37.20
38910;DHT22;24676;51.360;12.354;2022-09-02T13:35:55;23.60;36.90
38910;DHT22;24676;51.360;12.354;2022-09-02T13:38:41;23.80;36.50
38910;DHT22;24676;51.360;12.354;2022-09-02T13:41:30;23.90;36.10
38910;DHT22;24676;51.360;12.354;2022-09-02T13:44:28;23.90;36.90
38910;DHT22;24676;51.360;12.354;2022-09-02T13:47:17;23.80;36.10
38910;DHT22;24676;51.360;12.354;2022-09-02T13:50:06;23.70;35.50
38910;DHT22;24676;51.360;12.354;2022-09-02T13:52:53;23.90;35.90
38910;DHT22;24676;51.360;12.354;2022-09-02T13:55:39;23.70;36.00
38910;DHT22;24676;51.360;12.354;2022-09-02T14:04:05;22.90;38.00
38910;DHT22;24676;51.360;12.354;2022-09-02T14:06:52;22.80;37.70
38910;DHT22;24676;51.360;12.354;2022-09-02T14:09:38;22.80;38.10
38910;DHT22;24676;51.360;12.354;2022-09-02T14:12:25;22.80;38.20
38910;DHT22;24676;51.360;12.354;2022-09-02T14:15:13;22.70;38.30
38910;DHT22;24676;51.360;12.354;2022-09-02T14:23:51;22.60;38.30
38910;DHT22;24676;51.360;12.354;2022-09-02T14:26:37;22.40;38.50
38910;DHT22;24676;51.360;12.354;2022-09-02T14:29:25;22.30;39.00
38910;DHT22;24676;51.360;12.354;2022-09-02T14:32:23;22.30;39.40
38910;DHT22;24676;51.360;12.354;2022-09-02T14:35:18;22.40;39.30
38910;DHT22;24676;51.360;12.354;2022-09-02T14:38:02;22.40;39.10
38910;DHT22;24676;51.360;12.354;2022-09-02T14:40:47;22.60;39.20
38910;DHT22;24676;51.360;12.354;2022-09-02T14:43:41;22.70;38.50
38910;DHT22;24676;51.360;12.354;2022-09-02T14:46:29;22.80;38.40
38910;DHT22;24676;51.360;12.354;2022-09-02T14:49:30;23.00;38.40
38910;DHT22;24676;51.360;12.354;2022-09-02T14:52:22;23.20;36.50
38910;DHT22;24676;51.360;12.354;2022-09-02T14:55:07;23.20;36.40
38910;DHT22;24676;51.360;12.354;2022-09-02T14:58:11;23.20;36.10
38910;DHT22;24676;51.360;12.354;2022-09-02T15:01:00;23.10;36.70
38910;DHT22;24676;51.360;12.354;2022-09-02T15:03:45;23.10;35.40
38910;DHT22;24676;51.360;12.354;2022-09-02T15:06:33;23.00;35.80
38910;DHT22;24676;51.360;12.354;2022-09-02T15:09:18;22.80;36.60
38910;DHT22;24676;51.360;12.354;2022-09-02T15:12:02;22.90;36.90
38910;DHT22;24676;51.360;12.354;2022-09-02T15:14:47;22.90;37.00
38910;DHT22;24676;51.360;12.354;2022-09-02T15:17:31;22.70;36.80
38910;DHT22;24676;51.360;12.354;2022-09-02T15:20:15;22.60;37.30
38910;DHT22;24676;51.360;12.354;2022-09-02T15:23:00;22.50;38.10
38910;DHT22;24676;51.360;12.354;2022-09-02T15:25:45;22.40;38.50
38910;DHT22;24676;51.360;12.354;2022-09-02T15:28:28;22.30;38.50
38910;DHT22;24676;51.360;12.354;2022-09-02T15:31:15;22.30;39.00
38910;DHT22;24676;51.360;12.354;2022-09-02T15:33:59;22.20;39.40
38910;DHT22;24676;51.360;12.354;2022-09-02T15:36:43;22.10;39.80
38910;DHT22;24676;51.360;12.354;2022-09-02T15:39:28;22.00;40.20
38910;DHT22;24676;51.360;12.354;2022-09-02T15:42:13;21.90;41.10
38910;DHT22;24676;51.360;12.354;2022-09-02T15:44:57;21.80;39.50
38910;DHT22;24676;51.360;12.354;2022-09-02T15:47:45;21.80;39.10
38910;DHT22;24676;51.360;12.354;2022-09-02T15:50:31;21.90;39.00
38910;DHT22;24676;51.360;12.354;2022-09-02T15:53:16;21.90;38.30
38910;DHT22;24676;51.360;12.354;2022-09-02T15:56:01;22.00;38.60
38910;DHT22;24676;51.360;12.354;2022-09-02T15:58:45;22.10;38.90
38910;DHT22;24676;51.360;12.354;2022-09-02T16:01:32;22.20;39.00
38910;DHT22;24676;51.360;12.354;2022-09-02T16:04:16;22.30;39.30
38910;DHT22;24676;51.360;12.354;2022-09-02T16:07:01;22.20;39.00
38910;DHT22;24676;51.360;12.354;2022-09-02T16:09:46;22.10;39.00
38910;DHT22;24676;51.360;12.354;2022-09-02T16:12:31;22.00;39.20
38910;DHT22;24676;51.360;12.354;2022-09-02T16:15:15;21.80;39.30
38910;DHT22;24676;51.360;12.354;2022-09-02T16:18:00;21.60;39.40
38910;DHT22;24676;51.360;12.354;2022-09-02T16:20:44;21.50;39.80
38910;DHT22;24676;51.360;12.354;2022-09-02T16:23:31;21.40;40.00
38910;DHT22;24676;51.360;12.354;2022-09-02T16:26:24;21.30;40.40
38910;DHT22;24676;51.360;12.354;2022-09-02T16:29:11;21.30;40.60
38910;DHT22;24676;51.360;12.354;2022-09-02T16:31:59;21.30;40.90
38910;DHT22;24676;51.360;12.354;2022-09-02T16:34:43;21.30;41.00
38910;DHT22;24676;51.360;12.354;2022-09-02T16:37:29;21.30;41.30
38910;DHT22;24676;51.360;12.354;2022-09-02T16:40:13;21.30;41.50
38910;DHT22;24676;51.360;12.354;2022-09-02T16:43:03;21.40;41.70
38910;DHT22;24676;51.360;12.354;2022-09-02T16:45:49;21.40;41.30
38910;DHT22;24676;51.360;12.354;2022-09-02T16:48:34;21.40;41.40
38910;DHT22;24676;51.360;12.354;2022-09-02T16:51:19;21.40;41.30
38910;DHT22;24676;51.360;12.354;2022-09-02T16:54:03;21.40;41.20
38910;DHT22;24676;51.360;12.354;2022-09-02T16:56:48;21.30;41.50
38910;DHT22;24676;51.360;12.354;2022-09-02T16:59:32;21.20;41.80
38910;DHT22;24676;51.360;12.354;2022-09-02T17:02:16;21.10;42.30
38910;DHT22;24676;51.360;12.354;2022-09-02T17:05:01;21.00;42.50
38910;DHT22;24676;51.360;12.354;2022-09-02T17:07:45;21.00;43.00
38910;DHT22;24676;51.360;12.354;2022-09-02T17:10:29;20.90;43.20
38910;DHT22;24676;51.360;12.354;2022-09-02T17:13:13;20.90;43.20
38910;DHT22;24676;51.360;12.354;2022-09-02T17:15:57;20.80;43.30
38910;DHT22;24676;51.360;12.354;2022-09-02T17:18:41;20.70;43.60
38910;DHT22;24676;51.360;12.354;2022-09-02T17:21:32;20.60;43.90
38910;DHT22;24676;51.360;12.354;2022-09-02T17:24:18;20.60;44.30
38910;DHT22;24676;51.360;12.354;2022-09-02T17:27:02;20.50;44.80
38910;DHT22;24676;51.360;12.354;2022-09-02T17:29:47;20.40;45.10
38910;DHT22;24676;51.360;12.354;2022-09-02T17:32:31;20.30;45.40
38910;DHT22;24676;51.360;12.354;2022-09-02T17:35:15;20.20;45.50
38910;DHT22;24676;51.360;12.354;2022-09-02T17:38:00;20.10;45.70
38910;DHT22;24676;51.360;12.354;2022-09-02T17:40:44;20.00;46.00
38910;DHT22;24676;51.360;12.354;2022-09-02T17:43:48;19.90;46.30
38910;DHT22;24676;51.360;12.354;2022-09-02T17:46:32;19.80;46.60
38910;DHT22;24676;51.360;12.354;2022-09-02T17:49:16;19.80;47.00
38910;DHT22;24676;51.360;12.354;2022-09-02T17:52:00;19.70;47.30
38910;DHT22;24676;51.360;12.354;2022-09-02T17:54:49;19.60;47.50
38910;DHT22;24676;51.360;12.354;2022-09-02T17:57:47;19.60;47.70
38910;DHT22;24676;51.360;12.354;2022-09-02T18:00:32;19.50;47.90
38910;DHT22;24676;51.360;12.354;2022-09-02T18:03:31;19.50;48.10
38910;DHT22;24676;51.360;12.354;2022-09-02T18:06:22;19.40;48.30
38910;DHT22;24676;51.360;12.354;2022-09-02T18:09:11;19.40;48.60
38910;DHT22;24676;51.360;12.354;2022-09-02T18:11:55;19.30;48.60
38910;DHT22;24676;51.360;12.354;2022-09-02T18:14:43;19.30;48.60
38910;DHT22;24676;51.360;12.354;2022-09-02T18:17:33;19.30;48.70
38910;DHT22;24676;51.360;12.354;2022-09-02T18:20:22;19.20;48.80
38910;DHT22;24676;51.360;12.354;2022-09-02T18:26:12;19.10;49.00
38910;DHT22;24676;51.360;12.354;2022-09-02T18:32:08;18.90;49.40
38910;DHT22;24676;51.360;12.354;2022-09-02T18:43:28;18.70;50.00
38910;DHT22;24676;51.360;12.354;2022-09-02T18:46:17;18.60;50.30
38910;DHT22;24676;51.360;12.354;2022-09-02T18:49:02;18.50;50.50
38910;DHT22;24676;51.360;12.354;2022-09-02T18:51:47;18.50;50.80
38910;DHT22;24676;51.360;12.354;2022-09-02T18:57:30;18.40;51.30
38910;DHT22;24676;51.360;12.354;2022-09-02T19:00:15;18.30;51.20
38910;DHT22;24676;51.360;12.354;2022-09-02T19:03:00;18.30;51.20
38910;DHT22;24676;51.360;12.354;2022-09-02T19:05:46;18.30;51.30
38910;DHT22;24676;51.360;12.354;2022-09-02T19:08:31;18.20;51.50
38910;DHT22;24676;51.360;12.354;2022-09-02T19:11:20;18.10;51.50
38910;DHT22;24676;51.360;12.354;2022-09-02T19:14:17;18.10;51.80
38910;DHT22;24676;51.360;12.354;2022-09-02T19:17:05;18.00;52.00
38910;DHT22;24676;51.360;12.354;2022-09-02T19:19:52;18.00;52.20
38910;DHT22;24676;51.360;12.354;2022-09-02T19:22:38;17.90;52.30
38910;DHT22;24676;51.360;12.354;2022-09-02T19:25:23;17.90;52.50
38910;DHT22;24676;51.360;12.354;2022-09-02T19:28:07;17.70;52.70
38910;DHT22;24676;51.360;12.354;2022-09-02T19:30:52;17.70;52.90
38910;DHT22;24676;51.360;12.354;2022-09-02T19:33:40;17.70;53.10
38910;DHT22;24676;51.360;12.354;2022-09-02T19:36:26;17.70;53.10
38910;DHT22;24676;51.360;12.354;2022-09-02T19:39:11;17.70;53.10
38910;DHT22;24676;51.360;12.354;2022-09-02T19:41:55;17.70;53.20
38910;DHT22;24676;51.360;12.354;2022-09-02T19:44:40;17.60;53.90
38910;DHT22;24676;51.360;12.354;2022-09-02T19:47:24;17.60;53.50
38910;DHT22;24676;51.360;12.354;2022-09-02T19:50:09;17.60;53.60
38910;DHT22;24676;51.360;12.354;2022-09-02T19:52:53;17.60;53.50
38910;DHT22;24676;51.360;12.354;2022-09-02T19:55:38;17.60;53.50
38910;DHT22;24676;51.360;12.354;2022-09-02T19:58:22;17.50;53.60
38910;DHT22;24676;51.360;12.354;2022-09-02T20:01:06;17.50;53.70
38910;DHT22;24676;51.360;12.354;2022-09-02T20:03:50;17.50;53.80
38910;DHT22;24676;51.360;12.354;2022-09-02T20:06:35;17.50;53.90
38910;DHT22;24676;51.360;12.354;2022-09-02T20:09:19;17.60;53.90
38910;DHT22;24676;51.360;12.354;2022-09-02T20:12:03;17.60;53.90
38910;DHT22;24676;51.360;12.354;2022-09-02T20:14:47;17.60;54.00
38910;DHT22;24676;51.360;12.354;2022-09-02T20:17:32;17.70;53.80
38910;DHT22;24676;51.360;12.354;2022-09-02T20:20:18;17.70;53.80
38910;DHT22;24676;51.360;12.354;2022-09-02T20:23:02;17.70;53.40
38910;DHT22;24676;51.360;12.354;2022-09-02T20:32:00;17.70;53.70
38910;DHT22;24676;51.360;12.354;2022-09-02T20:34:51;17.70;53.80
38910;DHT22;24676;51.360;12.354;2022-09-02T20:37:40;17.60;53.80
38910;DHT22;24676;51.360;12.354;2022-09-02T20:43:30;17.50;54.10
38910;DHT22;24676;51.360;12.354;2022-09-02T20:46:19;17.50;54.40
38910;DHT22;24676;51.360;12.354;2022-09-02T20:49:19;17.50;54.30
38910;DHT22;24676;51.360;12.354;2022-09-02T20:52:10;17.50;54.20
38910;DHT22;24676;51.360;12.354;2022-09-02T20:55:16;17.50;54.20
38910;DHT22;24676;51.360;12.354;2022-09-02T20:58:25;17.50;54.10
38910;DHT22;24676;51.360;12.354;2022-09-02T21:28:14;17.40;54.80
38910;DHT22;24676;51.360;12.354;2022-09-02T21:31:33;17.40;54.90
38910;DHT22;24676;51.360;12.354;2022-09-02T21:34:14;17.40;54.80
38910;DHT22;24676;51.360;12.354;2022-09-02T21:37:00;17.40;54.90
38910;DHT22;24676;51.360;12.354;2022-09-02T21:39:48;17.40;55.00
38910;DHT22;24676;51.360;12.354;2022-09-02T21:42:48;17.40;55.00
38910;DHT22;24676;51.360;12.354;2022-09-02T21:48:36;17.30;55.30
38910;DHT22;24676;51.360;12.354;2022-09-02T21:51:23;17.30;55.20
38910;DHT22;24676;51.360;12.354;2022-09-02T21:54:23;17.20;55.30
38910;DHT22;24676;51.360;12.354;2022-09-02T22:08:43;17.20;55.70
38910;DHT22;24676;51.360;12.354;2022-09-02T22:11:51;17.10;55.80
38910;DHT22;24676;51.360;12.354;2022-09-02T22:18:20;17.10;56.00
38910;DHT22;24676;51.360;12.354;2022-09-02T22:20:30;17.10;56.20
38910;DHT22;24676;51.360;12.354;2022-09-02T22:23:20;17.10;56.40
38910;DHT22;24676;51.360;12.354;2022-09-02T22:26:12;17.10;56.40
38910;DHT22;24676;51.360;12.354;2022-09-02T22:29:00;17.00;56.50
38910;DHT22;24676;51.360;12.354;2022-09-02T22:31:47;17.00;56.60
38910;DHT22;24676;51.360;12.354;2022-09-02T22:34:32;17.00;56.70
38910;DHT22;24676;51.360;12.354;2022-09-02T22:37:21;17.00;56.90
38910;DHT22;24676;51.360;12.354;2022-09-02T22:40:08;17.00;57.00
38910;DHT22;24676;51.360;12.354;2022-09-02T22:42:55;17.00;57.30
38910;DHT22;24676;51.360;12.354;2022-09-02T22:45:49;16.90;57.30
38910;DHT22;24676;51.360;12.354;2022-09-02T22:48:58;16.90;57.60
38910;DHT22;24676;51.360;12.354;2022-09-02T22:55:04;16.90;58.00
38910;DHT22;24676;51.360;12.354;2022-09-02T23:00:42;16.90;58.00
38910;DHT22;24676;51.360;12.354;2022-09-02T23:03:47;16.90;58.30
38910;DHT22;24676;51.360;12.354;2022-09-02T23:06:33;16.80;58.40
38910;DHT22;24676;51.360;12.354;2022-09-02T23:09:17;16.80;58.60
38910;DHT22;24676;51.360;12.354;2022-09-02T23:12:22;16.80;58.70
38910;DHT22;24676;51.360;12.354;2022-09-02T23:15:19;16.70;59.20
38910;DHT22;24676;51.360;12.354;2022-09-02T23:20:51;16.60;59.50
38910;DHT22;24676;51.360;12.354;2022-09-02T23:23:40;16.60;59.50
38910;DHT22;24676;51.360;12.354;2022-09-02T23:29:30;16.50;60.30
38910;DHT22;24676;51.360;12.354;2022-09-02T23:35:22;16.30;61.00
38910;DHT22;24676;51.360;12.354;2022-09-02T23:41:12;16.30;61.80
38910;DHT22;24676;51.360;12.354;2022-09-02T23:43:57;16.20;62.10
38910;DHT22;24676;51.360;12.354;2022-09-02T23:49:39;16.20;62.70
38910;DHT22;24676;51.360;12.354;2022-09-02T23:55:20;16.20;63.30
